Time;durP1;ratioP1;P1;durP2;ratioP2;P2;SDS_P1;SDS_P2;PMS_P1;PMS_P2;Temp;Humidity;BMP_temperature;BMP_pressure;BME280_temperature;BME280_humidity;BME280_pressure;Samples;Min_cycle;Max_cycle;Signal;HPM_P1;HPM_P2
2023/08/18 00:01:22;;;;;;;8.73;7.00;;;;;;;26.21;72.87;100335.00;4953209;29;20052;-68
2023/08/18 00:03:52;;;;;;;8.20;6.47;;;;;;;26.21;72.90;100328.69;4953168;29;20055;-67
2023/08/18 00:06:20;;;;;;;10.40;7.28;;;;;;;26.21;72.99;100335.00;4953220;29;20050;-67
2023/08/18 00:08:48;;;;;;;8.32;6.95;;;;;;;26.20;72.50;100333.28;4953109;29;20483;-68
2023/08/18 00:11:17;;;;;;;9.40;6.88;;;;;;;26.19;73.16;100334.34;4953124;29;20052;-67
2023/08/18 00:13:45;;;;;;;10.25;6.68;;;;;;;26.18;73.03;100331.81;4953074;29;20043;-68
2023/08/18 00:16:13;;;;;;;8.73;6.85;;;;;;;26.18;72.70;100338.13;4952963;29;20139;-68
2023/08/18 00:18:42;;;;;;;8.38;6.63;;;;;;;26.17;72.69;100333.69;4952901;29;20055;-68
2023/08/18 00:21:11;;;;;;;8.35;6.72;;;;;;;26.16;72.73;100332.00;4952858;29;20043;-68
2023/08/18 00:23:39;;;;;;;10.00;7.03;;;;;;;26.17;73.16;100328.22;4953144;29;20058;-67
2023/08/18 00:26:10;;;;;;;8.88;6.90;;;;;;;26.17;72.80;100327.38;4952956;29;20057;-67
2023/08/18 00:28:38;;;;;;;8.60;6.32;;;;;;;26.16;73.22;100323.78;4952944;29;20126;-67
2023/08/18 00:31:06;;;;;;;9.32;6.80;;;;;;;26.16;73.21;100332.00;4952798;29;20516;-67
2023/08/18 00:33:34;;;;;;;7.88;6.57;;;;;;;26.14;72.89;100323.13;4953061;29;20059;-67
2023/08/18 00:36:03;;;;;;;9.75;7.10;;;;;;;26.14;73.24;100323.13;4954889;28;20082;-67
2023/08/18 00:38:33;;;;;;;8.48;7.03;;;;;;;26.15;73.11;100323.97;4956664;29;20047;-67
2023/08/18 00:41:01;;;;;;;7.78;6.22;;;;;;;26.13;73.42;100310.50;4956603;29;20051;-67
2023/08/18 00:43:29;;;;;;;10.00;6.70;;;;;;;26.14;72.90;100317.66;4956403;29;20071;-67
2023/08/18 00:45:57;;;;;;;8.75;6.53;;;;;;;26.13;73.19;100310.50;4956489;29;20055;-67
2023/08/18 00:48:26;;;;;;;9.75;6.70;;;;;;;26.13;73.20;100310.50;4956618;29;20047;-67
2023/08/18 00:50:54;;;;;;;8.13;6.60;;;;;;;26.13;73.35;100318.69;4956472;29;20059;-67
2023/08/18 00:53:23;;;;;;;7.57;6.65;;;;;;;26.13;73.06;100317.84;4956361;29;20043;-67
2023/08/18 00:55:53;;;;;;;10.65;6.72;;;;;;;26.11;73.54;100309.84;4956258;29;20540;-67
2023/08/18 00:58:21;;;;;;;8.88;6.78;;;;;;;26.10;73.25;100313.63;4956142;29;20110;-67
2023/08/18 01:00:50;;;;;;;8.30;6.50;;;;;;;26.10;73.23;100316.34;4956230;29;20047;-67
2023/08/18 01:03:19;;;;;;;7.75;6.55;;;;;;;26.09;73.66;100309.19;4956145;29;20055;-67
2023/08/18 01:05:47;;;;;;;8.13;6.53;;;;;;;26.09;73.24;100313.81;4956055;29;20051;-67
2023/08/18 01:08:16;;;;;;;10.02;6.55;;;;;;;26.08;73.15;100312.97;4956012;29;20110;-67
2023/08/18 01:10:52;;;;;;;9.75;6.97;;;;;;;26.09;73.58;100313.81;4955785;29;20054;-67
2023/08/18 01:13:36;;;;;;;8.82;6.60;;;;;;;26.07;73.49;100314.00;4956136;29;20139;-67
2023/08/18 01:16:09;;;;;;;8.63;6.47;;;;;;;26.07;73.68;100308.53;4955872;29;20491;-67
2023/08/18 01:18:40;;;;;;;8.70;6.30;;;;;;;26.07;73.47;100310.44;4955636;29;20058;-67
2023/08/18 01:21:11;;;;;;;8.50;6.70;;;;;;;26.06;73.56;100304.13;4967402;28;20047;-67
2023/08/18 01:23:44;;;;;;;11.33;6.87;;;;;;;26.05;73.40;100304.28;4975320;28;20074;-67
2023/08/18 01:26:12;;;;;;;7.72;6.70;;;;;;;26.04;73.29;100308.91;4975062;28;20131;-67
2023/08/18 01:28:40;;;;;;;7.55;6.22;;;;;;;26.03;73.16;100304.47;4975028;28;20082;-67
2023/08/18 01:31:12;;;;;;;7.80;6.47;;;;;;;26.03;73.29;100309.94;4974888;28;20547;-67
2023/08/18 01:33:46;;;;;;;8.95;6.75;;;;;;;26.02;72.96;100300.06;4974823;28;20054;-67
2023/08/18 01:36:19;;;;;;;8.77;6.80;;;;;;;26.02;73.36;100301.94;4974697;28;20142;-67
2023/08/18 01:38:51;;;;;;;7.78;6.22;;;;;;;26.00;73.40;100299.41;4974712;28;20074;-68
2023/08/18 01:41:23;;;;;;;8.73;6.77;;;;;;;25.99;73.42;100292.25;4974795;28;20043;-68
2023/08/18 01:43:51;;;;;;;8.45;6.70;;;;;;;25.98;73.07;100289.72;4974653;28;20352;-67
2023/08/18 01:46:19;;;;;;;7.72;6.28;;;;;;;25.98;73.23;100289.72;4973685;28;20058;-67
2023/08/18 01:48:48;;;;;;;7.82;6.28;;;;;;;25.98;73.25;100298.75;4974392;28;20054;-67
2023/08/18 01:51:16;;;;;;;9.02;6.45;;;;;;;25.96;73.06;100296.22;4974624;28;20054;-67
2023/08/18 01:53:44;;;;;;;8.43;6.10;;;;;;;25.95;73.23;100297.22;4974430;28;20055;-68
2023/08/18 01:56:13;;;;;;;7.95;6.43;;;;;;;25.96;73.31;100292.59;4974450;28;20133;-67
2023/08/18 01:58:42;;;;;;;8.75;6.47;;;;;;;25.94;73.33;100300.16;4974177;28;20047;-67
2023/08/18 02:01:10;;;;;;;7.70;6.35;;;;;;;25.95;73.16;100312.78;4974195;28;20051;-67
2023/08/18 02:03:38;;;;;;;8.13;6.53;;;;;;;25.93;73.05;100304.78;4974266;28;20083;-67
2023/08/18 02:06:06;;;;;;;8.30;6.20;;;;;;;25.94;73.34;100305.63;4974285;28;20054;-67
2023/08/18 02:08:34;;;;;;;7.72;6.80;;;;;;;25.93;73.16;100296.59;4974205;28;20080;-67
2023/08/18 02:11:03;;;;;;;7.97;5.93;;;;;;;25.92;72.71;100292.16;4974168;28;20046;-67
2023/08/18 02:13:33;;;;;;;8.30;6.10;;;;;;;25.92;73.22;100296.78;4974095;28;20138;-67
2023/08/18 02:16:01;;;;;;;8.73;6.55;;;;;;;25.92;72.85;100307.72;4974095;28;20086;-67
2023/08/18 02:18:30;;;;;;;8.50;6.43;;;;;;;25.91;73.11;100306.00;4974111;28;20086;-67
2023/08/18 02:20:59;;;;;;;9.23;6.45;;;;;;;25.89;73.14;100297.16;4974041;28;20439;-67
2023/08/18 02:23:27;;;;;;;9.85;6.55;;;;;;;25.88;73.24;100292.75;4973947;28;20063;-67
2023/08/18 02:26:00;;;;;;;11.45;6.55;;;;;;;25.90;73.15;100287.94;4973914;28;20480;-67
2023/08/18 02:28:28;;;;;;;8.38;6.35;;;;;;;25.90;72.87;100287.94;4973941;28;20063;-67
2023/08/18 02:31:05;;;;;;;8.85;6.38;;;;;;;25.89;73.27;100291.69;4973957;28;20101;-67
2023/08/18 02:33:34;;;;;;;9.68;6.18;;;;;;;25.88;73.03;100285.41;4973903;28;20125;-67
2023/08/18 02:36:04;;;;;;;10.50;6.13;;;;;;;25.88;72.95;100285.41;4973609;28;20524;-67
2023/08/18 02:38:35;;;;;;;8.45;6.43;;;;;;;25.88;72.96;100290.00;4973583;28;20138;-67
2023/08/18 02:41:03;;;;;;;8.02;6.32;;;;;;;25.87;73.28;100294.63;4973747;28;20389;-67
2023/08/18 02:43:31;;;;;;;7.90;5.97;;;;;;;25.84;73.04;100288.69;4973719;28;20046;-67
2023/08/18 02:46:01;;;;;;;8.32;6.13;;;;;;;25.86;73.02;100292.06;4973380;28;20506;-67
2023/08/18 02:48:31;;;;;;;9.10;6.35;;;;;;;25.84;73.40;100294.16;4973261;28;20050;-67
2023/08/18 02:51:03;;;;;;;7.63;6.10;;;;;;;25.83;72.88;100287.84;4973213;28;20133;-67
2023/08/18 02:53:32;;;;;;;6.55;5.53;;;;;;;25.83;73.38;100289.72;4973516;28;20059;-67
2023/08/18 02:56:00;;;;;;;7.18;5.72;;;;;;;25.83;72.93;100287.00;4973403;28;20054;-67
2023/08/18 02:58:29;;;;;;;8.55;5.97;;;;;;;25.83;73.40;100287.00;4972890;28;20105;-67
2023/08/18 03:01:02;;;;;;;7.13;6.07;;;;;;;25.82;73.00;100288.88;4973313;28;20130;-67
2023/08/18 03:03:32;;;;;;;8.55;6.10;;;;;;;25.80;72.93;100280.03;4973112;28;20057;-67
2023/08/18 03:06:00;;;;;;;6.78;6.00;;;;;;;25.80;73.23;100284.66;4973062;28;20069;-67
2023/08/18 03:08:28;;;;;;;8.70;6.03;;;;;;;25.80;72.99;100285.50;4972891;28;20526;-67
2023/08/18 03:10:57;;;;;;;7.97;5.95;;;;;;;25.80;72.93;100281.91;4973163;28;20415;-68
2023/08/18 03:13:26;;;;;;;7.53;6.20;;;;;;;25.79;73.19;100291.16;4972953;28;20055;-67
2023/08/18 03:15:55;;;;;;;9.48;5.88;;;;;;;25.79;73.41;100299.34;4973063;28;20114;-67
2023/08/18 03:18:24;;;;;;;8.00;5.95;;;;;;;25.77;73.29;100294.06;4972838;28;20051;-67
2023/08/18 03:20:59;;;;;;;7.63;6.15;;;;;;;25.78;73.40;100305.84;4973042;28;20050;-67
2023/08/18 03:23:29;;;;;;;9.57;6.22;;;;;;;25.77;73.47;100298.66;4972854;28;20474;-67
2023/08/18 03:26:01;;;;;;;7.90;5.85;;;;;;;25.76;73.28;100296.97;4972897;28;20117;-67
2023/08/18 03:28:31;;;;;;;8.38;6.43;;;;;;;25.75;73.49;100306.22;4972723;28;20055;-67
2023/08/18 03:31:00;;;;;;;8.77;6.18;;;;;;;25.76;73.58;100296.97;4972587;28;20055;-66
2023/08/18 03:33:28;;;;;;;9.07;6.15;;;;;;;25.74;73.64;100293.59;4972935;28;20137;-66
2023/08/18 03:35:57;;;;;;;7.63;6.00;;;;;;;25.72;73.59;100292.94;4972679;28;20055;-67
2023/08/18 03:38:27;;;;;;;7.75;6.45;;;;;;;25.71;73.87;100299.44;4972728;28;20078;-67
2023/08/18 03:40:59;;;;;;;7.50;6.13;;;;;;;25.71;73.83;100304.91;4972669;28;20046;-67
2023/08/18 03:43:28;;;;;;;;;;;;;;;25.70;73.85;100309.53;4973004;28;20097;-67
2023/08/18 03:45:59;;;;;;;7.22;5.65;;;;;;;25.68;73.89;100304.22;4972731;28;19933;-67
2023/08/18 03:48:27;;;;;;;8.15;6.18;;;;;;;25.68;73.84;100300.66;4972663;28;20407;-67
2023/08/18 03:50:56;;;;;;;7.97;6.28;;;;;;;25.66;73.92;100305.41;4972455;28;20078;-67
2023/08/18 03:53:24;;;;;;;7.47;5.55;;;;;;;25.65;73.92;100299.13;4972474;28;20047;-67
2023/08/18 03:55:56;;;;;;;9.30;6.03;;;;;;;25.65;73.56;100299.13;4972423;28;20055;-68
2023/08/18 03:58:24;;;;;;;9.23;6.10;;;;;;;25.65;73.56;100296.38;4972780;28;20069;-67
2023/08/18 04:01:01;;;;;;;7.05;5.97;;;;;;;25.65;73.83;100296.38;4972681;28;20051;-67
2023/08/18 04:03:29;;;;;;;7.70;6.28;;;;;;;25.65;73.91;100296.38;4972468;28;20058;-67
2023/08/18 04:05:58;;;;;;;9.52;5.90;;;;;;;25.65;73.45;100293.66;4972450;28;20489;-67
2023/08/18 04:08:26;;;;;;;6.90;5.75;;;;;;;25.64;73.57;100291.97;4972253;28;20057;-67
2023/08/18 04:10:56;;;;;;;8.90;6.22;;;;;;;25.62;73.35;100288.56;4974706;28;20117;-67
2023/08/18 04:13:24;;;;;;;7.93;6.00;;;;;;;25.65;73.42;100296.38;4976455;28;20086;-67
2023/08/18 04:15:52;;;;;;;9.65;6.60;;;;;;;25.65;73.77;100299.13;4976505;28;20146;-67
2023/08/18 04:18:20;;;;;;;7.55;6.00;;;;;;;25.65;73.36;100301.00;4976115;28;20058;-67
2023/08/18 04:20:48;;;;;;;9.63;6.28;;;;;;;25.65;73.43;100301.84;4976034;28;20539;-67
2023/08/18 04:23:16;;;;;;;8.05;6.30;;;;;;;25.65;73.74;100293.66;4975869;28;20089;-67
2023/08/18 04:25:45;;;;;;;7.35;5.88;;;;;;;25.66;73.74;100298.06;4976182;28;20465;-67
2023/08/18 04:28:15;;;;;;;8.57;6.70;;;;;;;25.65;73.54;100296.38;4976010;28;20058;-68
2023/08/18 04:30:46;;;;;;;8.43;6.28;;;;;;;25.65;73.37;100301.84;4975892;28;20058;-67
2023/08/18 04:33:15;;;;;;;7.57;6.25;;;;;;;25.65;73.73;100290.91;4975546;28;20050;-67
2023/08/18 04:35:43;;;;;;;8.45;6.28;;;;;;;25.67;73.71;100310.72;4975561;28;20141;-68
2023/08/18 04:38:13;;;;;;;8.38;6.70;;;;;;;25.65;73.71;100303.72;4975796;28;20460;-67
2023/08/18 04:40:41;;;;;;;8.40;6.45;;;;;;;25.65;73.43;100301.84;4975800;28;20046;-67
2023/08/18 04:43:10;;;;;;;10.63;6.30;;;;;;;25.65;73.61;100307.31;4975757;28;20046;-67
2023/08/18 04:45:39;;;;;;;7.97;6.20;;;;;;;25.66;73.64;100313.63;4975626;28;20047;-68
2023/08/18 04:48:08;;;;;;;9.07;6.45;;;;;;;25.66;73.73;100319.09;4975491;28;20047;-68
2023/08/18 04:50:36;;;;;;;9.07;6.03;;;;;;;25.64;73.34;100311.06;4975790;28;20408;-68
2023/08/18 04:53:04;;;;;;;7.93;6.35;;;;;;;25.65;73.32;100315.50;4975604;28;20094;-67
2023/08/18 04:55:34;;;;;;;9.00;6.45;;;;;;;25.65;73.30;100311.94;4975484;28;20414;-68
2023/08/18 04:58:02;;;;;;;8.32;6.60;;;;;;;25.65;73.42;100307.31;4975317;28;20047;-68
2023/08/18 05:00:30;;;;;;;9.07;6.22;;;;;;;25.66;73.40;100319.09;4975395;28;20444;-67
2023/08/18 05:03:00;;;;;;;8.48;6.60;;;;;;;25.65;73.48;100331.03;4975203;28;20138;-67
2023/08/18 05:05:28;;;;;;;8.70;6.70;;;;;;;25.63;73.34;100317.59;4975638;28;20055;-67
2023/08/18 05:07:56;;;;;;;8.15;6.40;;;;;;;25.64;73.58;100327.47;4975448;28;20053;-67
2023/08/18 05:10:24;;;;;;;8.40;6.53;;;;;;;25.64;73.04;100322.00;4975527;28;20217;-67
2023/08/18 05:12:52;;;;;;;8.57;6.55;;;;;;;25.62;73.23;100313.16;4975384;28;20046;-67
2023/08/18 05:15:21;;;;;;;9.32;6.70;;;;;;;25.65;73.32;100317.38;4975221;28;20114;-67
2023/08/18 05:17:49;;;;;;;9.02;6.93;;;;;;;25.64;72.96;100312.97;4975170;28;20054;-67
2023/08/18 05:20:19;;;;;;;8.65;6.50;;;;;;;25.65;73.09;100318.22;4975532;28;20138;-67
2023/08/18 05:22:47;;;;;;;8.80;6.65;;;;;;;25.65;72.80;100329.16;4975639;28;20464;-67
2023/08/18 05:25:15;;;;;;;7.35;6.32;;;;;;;25.67;72.89;100335.31;4975610;28;20069;-67
2023/08/18 05:27:43;;;;;;;7.95;6.30;;;;;;;25.67;73.15;100335.31;4974922;28;20130;-67
2023/08/18 05:30:13;;;;;;;9.48;6.47;;;;;;;25.66;72.57;100336.31;4974754;28;20109;-67
2023/08/18 05:32:41;;;;;;;8.43;6.50;;;;;;;25.67;72.71;100338.03;4974873;28;20149;-67
2023/08/18 05:35:11;;;;;;;10.98;6.88;;;;;;;25.65;72.80;100334.63;4974799;28;20393;-66
2023/08/18 05:37:40;;;;;;;10.48;6.70;;;;;;;25.65;72.55;100334.63;4974826;28;20475;-67
2023/08/18 05:40:10;;;;;;;7.90;6.88;;;;;;;25.64;73.03;100338.38;4974720;28;20050;-67
2023/08/18 05:42:38;;;;;;;9.85;6.28;;;;;;;25.67;72.54;100343.50;4974356;28;20077;-66
2023/08/18 05:45:07;;;;;;;10.25;6.70;;;;;;;25.66;72.52;100347.25;4974828;28;20082;-67
2023/08/18 05:47:35;;;;;;;7.47;6.18;;;;;;;25.67;72.98;100343.50;4974455;28;20043;-67
2023/08/18 05:50:06;;;;;;;8.88;6.30;;;;;;;25.68;72.83;100337.00;4974473;28;20050;-67
2023/08/18 05:52:35;;;;;;;9.52;6.88;;;;;;;25.66;72.67;100335.47;4974373;28;20121;-67
2023/08/18 05:55:05;;;;;;;10.43;6.50;;;;;;;25.68;72.93;100342.47;4974303;28;20125;-67
2023/08/18 05:57:33;;;;;;;7.70;6.53;;;;;;;25.67;72.98;100338.03;4974056;28;20053;-67
2023/08/18 06:00:02;;;;;;;9.63;6.75;;;;;;;25.67;72.89;100340.78;4974501;28;20125;-67
2023/08/18 06:02:31;;;;;;;9.68;6.57;;;;;;;25.71;72.55;100348.63;4974186;28;20050;-67
2023/08/18 06:05:00;;;;;;;9.93;6.25;;;;;;;25.69;72.42;100335.13;4974328;28;20043;-67
2023/08/18 06:07:28;;;;;;;7.88;5.90;;;;;;;25.68;72.06;100328.81;4973978;28;20049;-67
2023/08/18 06:09:56;;;;;;;9.48;6.43;;;;;;;25.71;72.04;100332.22;4973871;28;20419;-67
2023/08/18 06:12:26;;;;;;;9.13;6.45;;;;;;;25.71;71.95;100337.69;4973949;28;20051;-66
2023/08/18 06:14:57;;;;;;;9.25;6.55;;;;;;;25.69;72.19;100335.13;4974300;28;20054;-67
2023/08/18 06:17:25;;;;;;;8.50;6.30;;;;;;;25.70;72.12;100336.84;4974040;28;20054;-67
2023/08/18 06:19:54;;;;;;;9.48;6.32;;;;;;;25.71;71.90;100324.88;4974084;28;20054;-66
2023/08/18 06:22:22;;;;;;;7.55;5.85;;;;;;;25.72;71.57;100325.72;4973705;28;20153;-67
2023/08/18 06:24:50;;;;;;;8.15;5.97;;;;;;;25.69;71.86;100327.75;4973993;28;20137;-67
2023/08/18 06:27:18;;;;;;;9.43;6.38;;;;;;;25.73;71.46;100335.59;4973933;28;20055;-67
2023/08/18 06:29:48;;;;;;;7.88;6.10;;;;;;;25.72;71.91;100339.38;4973798;28;20098;-67
2023/08/18 06:32:16;;;;;;;9.60;6.32;;;;;;;25.72;71.48;100332.03;4973449;28;20061;-68
2023/08/18 06:34:44;;;;;;;7.80;6.20;;;;;;;25.73;71.35;100341.06;4973022;28;20047;-67
2023/08/18 06:37:12;;;;;;;8.45;6.40;;;;;;;25.73;71.34;100338.34;4973480;28;20493;-69
2023/08/18 06:39:40;;;;;;;9.57;6.53;;;;;;;25.74;71.44;100343.59;4973823;28;20058;-68
2023/08/18 06:42:08;;;;;;;7.75;6.07;;;;;;;25.75;71.20;100339.00;4973593;28;20052;-67
2023/08/18 06:44:37;;;;;;;9.25;6.40;;;;;;;25.72;71.21;100329.28;4973777;28;20066;-71
2023/08/18 06:47:07;;;;;;;9.15;6.22;;;;;;;25.75;71.29;100328.91;4973540;28;20051;-67
2023/08/18 06:49:35;;;;;;;8.88;6.32;;;;;;;25.75;71.24;100333.53;4973200;28;20459;-66
2023/08/18 06:52:04;;;;;;;8.82;6.47;;;;;;;25.74;71.59;100334.56;4973446;28;20568;-66
2023/08/18 06:54:33;;;;;;;9.57;6.43;;;;;;;25.74;71.38;100342.75;4973711;28;20053;-66
2023/08/18 06:57:01;;;;;;;8.32;6.55;;;;;;;25.77;71.45;100347.84;4973799;28;20047;-66
2023/08/18 06:59:29;;;;;;;7.97;6.50;;;;;;;25.75;71.24;100348.03;4973347;28;20054;-67
2023/08/18 07:01:57;;;;;;;7.82;6.35;;;;;;;25.78;71.44;100349.56;4973283;28;20046;-66
2023/08/18 07:04:27;;;;;;;10.00;6.72;;;;;;;25.78;71.11;100355.88;4973432;28;20436;-66
2023/08/18 07:06:55;;;;;;;8.13;6.45;;;;;;;25.79;71.33;100367.66;4973544;28;20047;-67
2023/08/18 07:09:23;;;;;;;8.32;6.68;;;;;;;25.80;70.91;100356.53;4974400;28;20110;-66
2023/08/18 07:11:51;;;;;;;8.50;6.88;;;;;;;25.81;71.33;100354.63;4973703;28;20050;-66
2023/08/18 07:14:20;;;;;;;8.07;6.43;;;;;;;25.82;71.11;100362.63;4973671;28;20047;-66
2023/08/18 07:16:49;;;;;;;9.13;7.18;;;;;;;25.82;70.98;100359.06;4972935;28;20420;-66
2023/08/18 07:19:17;;;;;;;8.95;6.70;;;;;;;25.83;71.24;100360.75;4973181;28;20042;-66
2023/08/18 07:21:47;;;;;;;11.13;7.20;;;;;;;25.83;70.99;100352.56;4973534;28;20050;-66
2023/08/18 07:24:15;;;;;;;9.80;6.72;;;;;;;25.83;70.97;100368.94;4973753;28;20376;-66
2023/08/18 07:26:43;;;;;;;9.55;6.78;;;;;;;25.84;70.60;100365.19;4973161;28;20145;-67
2023/08/18 07:29:11;;;;;;;11.23;6.60;;;;;;;25.84;70.82;100365.19;4972751;28;20419;-67
2023/08/18 07:31:39;;;;;;;8.77;6.75;;;;;;;25.82;70.74;100361.78;4972605;28;20050;-69
2023/08/18 07:34:07;;;;;;;9.10;6.63;;;;;;;25.86;70.74;100357.63;4972849;28;20110;-67
2023/08/18 07:36:35;;;;;;;8.18;6.53;;;;;;;25.85;70.45;100351.31;4972569;28;20566;-67
2023/08/18 07:39:07;;;;;;;9.73;7.13;;;;;;;25.87;70.52;100359.38;4972768;28;20047;-67
2023/08/18 07:41:35;;;;;;;10.60;6.82;;;;;;;25.87;70.29;100364.81;4972575;28;20106;-68
2023/08/18 07:44:03;;;;;;;9.95;6.80;;;;;;;25.87;70.58;100364.81;4972704;28;20106;-68
2023/08/18 07:46:31;;;;;;;7.50;6.25;;;;;;;25.88;70.71;100369.25;4972811;28;20090;-67
2023/08/18 07:48:59;;;;;;;8.20;6.55;;;;;;;25.89;70.63;100365.47;4972577;28;20047;-68
2023/08/18 07:51:28;;;;;;;10.20;7.35;;;;;;;25.89;70.86;100369.06;4972423;28;20061;-68
2023/08/18 07:53:56;;;;;;;9.73;6.43;;;;;;;25.91;70.45;100377.06;4972470;28;20086;-68
2023/08/18 07:56:26;;;;;;;8.80;6.60;;;;;;;25.91;70.53;100377.06;4972294;28;20066;-67
2023/08/18 07:58:54;;;;;;;9.23;6.68;;;;;;;25.92;70.88;100386.94;4972514;28;20086;-66
2023/08/18 08:01:24;;;;;;;8.05;6.20;;;;;;;25.93;70.69;100381.28;4972231;28;20500;-67
2023/08/18 08:03:52;;;;;;;9.45;6.68;;;;;;;25.93;70.81;100385.91;4972395;28;20050;-67
2023/08/18 08:06:20;;;;;;;8.73;6.47;;;;;;;25.95;70.85;100389.28;4972390;28;20145;-66
2023/08/18 08:08:48;;;;;;;8.73;6.35;;;;;;;25.96;70.42;100394.59;4972106;28;20338;-67
2023/08/18 08:11:16;;;;;;;8.70;6.28;;;;;;;25.96;70.96;100391.00;4972148;28;20065;-66
2023/08/18 08:13:46;;;;;;;10.32;6.78;;;;;;;25.98;70.68;100399.88;4971553;28;20129;-67
2023/08/18 08:16:14;;;;;;;10.45;6.97;;;;;;;26.00;70.34;100403.25;4972148;28;20089;-66
2023/08/18 08:18:43;;;;;;;8.98;6.60;;;;;;;26.01;70.54;100398.63;4972168;28;20233;-65
2023/08/18 08:21:11;;;;;;;8.57;6.45;;;;;;;26.03;70.65;100402.88;4972026;28;20046;-65
2023/08/18 08:23:39;;;;;;;9.52;7.10;;;;;;;26.03;70.58;100402.88;4972167;28;20059;-67
2023/08/18 08:26:08;;;;;;;8.85;6.13;;;;;;;26.04;70.48;100407.28;4972150;28;20051;-66
2023/08/18 08:28:36;;;;;;;10.90;6.88;;;;;;;26.06;70.59;100412.59;4972170;28;20616;-66
2023/08/18 08:31:06;;;;;;;8.90;6.93;;;;;;;26.06;70.62;100410.72;4972339;28;20128;-67
2023/08/18 08:33:34;;;;;;;10.73;6.88;;;;;;;26.08;70.71;100411.38;4972189;28;20047;-67
2023/08/18 08:36:02;;;;;;;9.63;6.90;;;;;;;26.09;70.12;100410.31;4972050;28;20422;-67
2023/08/18 08:38:30;;;;;;;8.05;6.53;;;;;;;26.10;70.17;100414.75;4972339;28;20051;-66
2023/08/18 08:41:00;;;;;;;9.00;6.82;;;;;;;26.12;70.50;100411.81;4972159;28;20050;-68
2023/08/18 08:43:29;;;;;;;11.00;6.85;;;;;;;26.12;70.04;100409.94;4971827;28;20583;-67
2023/08/18 08:46:00;;;;;;;7.40;6.50;;;;;;;26.14;70.13;100418.78;4972072;28;20042;-67
2023/08/18 08:48:32;;;;;;;7.97;6.40;;;;;;;26.16;70.19;100405.81;4971929;28;20484;-67
2023/08/18 08:51:04;;;;;;;8.15;6.13;;;;;;;26.15;70.16;100406.84;4971844;28;20061;-67
2023/08/18 08:53:39;;;;;;;7.55;6.00;;;;;;;26.18;70.25;100417.41;4971925;28;20145;-67
2023/08/18 08:56:08;;;;;;;8.40;6.10;;;;;;;26.20;70.07;100407.09;4972289;28;20156;-67
2023/08/18 08:58:37;;;;;;;8.48;6.53;;;;;;;26.21;69.78;100397.88;4975824;28;20161;-67
2023/08/18 09:01:07;;;;;;;9.15;6.72;;;;;;;26.21;70.07;100397.88;4975165;28;20054;-67
2023/08/18 09:03:37;;;;;;;8.75;6.25;;;;;;;26.23;69.83;100400.41;4975489;28;20053;-66
2023/08/18 09:06:06;;;;;;;9.68;6.80;;;;;;;26.23;69.83;100409.44;4975507;28;20134;-67
2023/08/18 09:08:35;;;;;;;7.60;6.50;;;;;;;26.25;69.84;100392.88;4975352;28;20050;-67
2023/08/18 09:11:03;;;;;;;7.93;6.10;;;;;;;26.25;69.93;100396.47;4975210;28;20558;-67
2023/08/18 09:13:31;;;;;;;7.80;6.50;;;;;;;26.27;69.52;100395.44;4975662;28;20106;-67
2023/08/18 09:15:59;;;;;;;8.50;6.70;;;;;;;26.29;69.91;100387.88;4974996;28;20411;-67
2023/08/18 09:18:28;;;;;;;8.38;6.20;;;;;;;26.29;69.52;100385.97;4975312;28;20047;-67
2023/08/18 09:20:57;;;;;;;6.93;5.90;;;;;;;26.30;69.42;100384.94;4975143;28;20093;-68
2023/08/18 09:23:28;;;;;;;10.90;7.00;;;;;;;26.29;69.76;100380.50;4975123;28;20055;-66
2023/08/18 09:25:57;;;;;;;8.65;6.75;;;;;;;26.32;69.71;100371.06;4975127;28;20047;-66
2023/08/18 09:28:25;;;;;;;8.70;6.30;;;;;;;26.33;69.69;100380.97;4974888;28;20108;-68
2023/08/18 09:30:53;;;;;;;7.93;6.28;;;;;;;26.35;69.25;100389.84;4974986;28;20054;-66
2023/08/18 09:33:25;;;;;;;10.15;6.38;;;;;;;26.36;69.20;100384.19;4975018;28;20051;-66
2023/08/18 09:36:01;;;;;;;8.85;6.70;;;;;;;26.37;69.04;100385.91;4974675;28;20582;-66
2023/08/18 09:38:30;;;;;;;7.90;6.38;;;;;;;26.41;69.28;100389.09;4974815;28;20138;-66
2023/08/18 09:41:03;;;;;;;6.90;6.20;;;;;;;26.42;69.40;100390.78;4974590;28;20043;-67
2023/08/18 09:43:32;;;;;;;8.48;6.95;;;;;;;26.42;69.01;100386.16;4974864;28;20053;-67
2023/08/18 09:46:03;;;;;;;8.18;6.72;;;;;;;26.44;69.49;100391.44;4974841;28;20082;-67
2023/08/18 09:48:35;;;;;;;7.95;6.25;;;;;;;26.45;69.17;100382.22;4974765;28;20051;-67
2023/08/18 09:51:07;;;;;;;7.97;6.47;;;;;;;26.46;69.48;100375.72;4974620;28;20417;-67
2023/08/18 09:53:36;;;;;;;9.33;6.67;;;;;;;26.47;69.10;100378.25;4974550;28;20138;-67
2023/08/18 09:56:09;;;;;;;8.02;6.85;;;;;;;26.47;69.61;100371.94;4974692;28;20277;-67
2023/08/18 09:58:43;;;;;;;7.85;6.82;;;;;;;26.48;69.59;100376.34;4974529;28;20053;-67
2023/08/18 10:01:14;;;;;;;8.23;7.00;;;;;;;26.51;69.46;100378.69;4974442;28;20047;-67
2023/08/18 10:03:46;;;;;;;8.65;6.88;;;;;;;26.53;69.10;100371.16;4973884;28;20074;-66
2023/08/18 10:06:17;;;;;;;9.52;7.22;;;;;;;26.54;69.56;100383.81;4973626;28;20062;-67
2023/08/18 10:08:45;;;;;;;8.38;6.50;;;;;;;26.57;69.04;100375.22;4972988;28;20496;-67
2023/08/18 10:11:14;;;;;;;8.05;6.30;;;;;;;26.59;68.82;100381.31;4974142;28;20070;-67
2023/08/18 10:13:42;;;;;;;9.27;7.00;;;;;;;26.61;68.95;100378.38;4974067;28;20089;-67
2023/08/18 10:16:11;;;;;;;8.65;6.95;;;;;;;26.62;69.24;100372.72;4974133;28;20049;-67
2023/08/18 10:18:39;;;;;;;8.27;7.00;;;;;;;26.63;69.04;100377.16;4973868;28;20046;-66
2023/08/18 10:21:10;;;;;;;9.15;6.82;;;;;;;26.66;69.10;100375.94;4973955;28;20146;-67
2023/08/18 10:23:41;;;;;;;7.97;6.65;;;;;;;26.66;69.34;100365.84;4973908;28;20082;-66
2023/08/18 10:26:09;;;;;;;9.98;7.47;;;;;;;26.69;69.42;100375.53;4973759;28;20046;-67
2023/08/18 10:28:39;;;;;;;9.05;7.05;;;;;;;26.70;68.84;100372.59;4973857;28;20051;-67
2023/08/18 10:31:10;;;;;;;9.75;7.13;;;;;;;26.70;69.15;100364.41;4973503;28;20054;-67
2023/08/18 10:33:43;;;;;;;8.38;7.47;;;;;;;26.74;69.02;100373.94;4973870;28;20413;-67
2023/08/18 10:36:14;;;;;;;;;;;;;;;26.77;68.62;100379.00;4973919;28;20511;-67
2023/08/18 10:38:44;;;;;;;7.68;6.88;;;;;;;26.79;68.59;100376.06;4973731;28;19922;-67
2023/08/18 10:41:12;;;;;;;9.38;7.07;;;;;;;26.81;68.67;100372.09;4973506;28;20098;-67
2023/08/18 10:43:47;;;;;;;8.60;7.13;;;;;;;26.83;68.45;100371.91;4973387;28;20133;-67
2023/08/18 10:46:15;;;;;;;10.98;7.65;;;;;;;26.86;68.85;100365.19;4973607;28;20051;-67
2023/08/18 10:48:45;;;;;;;9.82;6.93;;;;;;;26.87;68.84;100370.47;4973567;28;20072;-67
2023/08/18 10:51:13;;;;;;;8.77;7.20;;;;;;;26.90;68.63;100372.81;4973241;28;20047;-67
2023/08/18 10:53:43;;;;;;;7.85;6.50;;;;;;;26.93;68.62;100363.38;4973269;28;20054;-67
2023/08/18 10:56:12;;;;;;;9.20;7.32;;;;;;;26.95;68.71;100369.50;4973259;28;20412;-67
2023/08/18 10:58:40;;;;;;;10.57;6.80;;;;;;;26.97;68.09;100359.19;4973525;28;20074;-67
2023/08/18 11:01:09;;;;;;;8.55;7.07;;;;;;;27.02;68.13;100362.19;4973115;28;20047;-67
2023/08/18 11:03:39;;;;;;;7.70;6.78;;;;;;;27.04;68.28;100357.41;4973334;28;20057;-65
2023/08/18 11:06:07;;;;;;;7.78;6.97;;;;;;;27.08;67.92;100361.44;4973222;28;20051;-68
2023/08/18 11:08:37;;;;;;;9.98;6.85;;;;;;;27.10;68.25;100356.59;4973056;28;20047;-68
2023/08/18 11:11:07;;;;;;;8.25;6.95;;;;;;;27.15;68.26;100356.88;4972949;28;20054;-66
2023/08/18 11:13:35;;;;;;;8.10;7.10;;;;;;;27.18;67.61;100356.47;4973104;28;20129;-67
2023/08/18 11:16:03;;;;;;;10.05;7.38;;;;;;;27.23;67.54;100362.22;4972997;28;20054;-67
2023/08/18 11:18:31;;;;;;;9.07;7.28;;;;;;;27.24;67.56;100358.44;4972658;28;20685;-67
2023/08/18 11:20:59;;;;;;;7.65;6.80;;;;;;;27.27;67.59;100360.75;4972579;28;20086;-67
2023/08/18 11:23:28;;;;;;;8.43;7.15;;;;;;;27.33;67.01;100356.38;4955762;28;20133;-67
2023/08/18 11:25:57;;;;;;;8.73;6.97;;;;;;;27.36;66.88;100356.81;4973039;28;20146;-67
2023/08/18 11:28:27;;;;;;;8.68;6.90;;;;;;;27.41;66.67;100352.63;4972891;28;20047;-66
2023/08/18 11:30:56;;;;;;;7.88;7.00;;;;;;;27.46;66.71;100355.63;4972751;28;20074;-68
2023/08/18 11:33:25;;;;;;;9.70;6.65;;;;;;;27.48;66.31;100356.28;4972639;28;20105;-66